createdAt,value
2023-05-07T00:00:24.527Z,89.7
2023-05-07T00:12:24.429Z,90.3
2023-05-07T00:24:24.546Z,91.7
2023-05-07T00:36:24.515Z,91.6
2023-05-07T00:48:24.488Z,91.0
2023-05-07T01:00:24.474Z,91.0
2023-05-07T01:12:24.450Z,90.4
2023-05-07T01:24:24.426Z,89.1
2023-05-07T01:36:24.688Z,87.6
2023-05-07T01:48:24.512Z,87.6
2023-05-07T02:00:24.499Z,86.2
2023-05-07T02:12:24.478Z,85.7
2023-05-07T02:24:24.464Z,85.1
2023-05-07T02:36:24.522Z,85.5
2023-05-07T02:48:24.538Z,85.7
2023-05-07T03:00:24.427Z,86.5
2023-05-07T03:12:24.426Z,86.8
2023-05-07T03:24:24.422Z,86.6
2023-05-07T03:36:24.494Z,86.0
2023-05-07T03:48:24.547Z,86.0
2023-05-07T04:00:24.550Z,87.0
2023-05-07T04:12:24.526Z,87.0
2023-05-07T04:24:24.548Z,86.9
2023-05-07T04:36:24.510Z,87.8
2023-05-07T04:48:24.968Z,87.6
2023-05-07T05:00:24.530Z,87.6
2023-05-07T05:12:24.523Z,87.3
2023-05-07T05:24:24.437Z,87.3
2023-05-07T05:36:24.426Z,88.2
2023-05-07T05:48:24.524Z,87.3
2023-05-07T06:00:24.536Z,83.1
2023-05-07T06:12:24.551Z,82.3
2023-05-07T06:24:24.542Z,79.7
2023-05-07T06:36:24.533Z,77.2
2023-05-07T06:48:24.543Z,76.3
2023-05-07T07:00:24.442Z,76.8
2023-05-07T07:12:24.429Z,77.4
2023-05-07T07:24:24.425Z,77.5
2023-05-07T07:36:29.487Z,77.6
2023-05-07T07:48:24.511Z,76.7
2023-05-07T08:00:24.482Z,74.5
2023-05-07T08:12:24.423Z,75.5
2023-05-07T08:24:24.472Z,73.6
2023-05-07T08:36:24.563Z,73.7
2023-05-07T08:48:24.521Z,71.6
2023-05-07T09:00:24.527Z,67.2
2023-05-07T09:12:24.450Z,67.6
2023-05-07T09:24:24.567Z,65.1
2023-05-07T09:36:24.505Z,62.7
2023-05-07T09:48:24.548Z,61.6
2023-05-07T10:00:24.445Z,63.8
2023-05-07T10:12:24.532Z,61.2
2023-05-07T10:24:24.542Z,59.2
2023-05-07T10:36:24.565Z,58.3
2023-05-07T10:48:30.266Z,56.5
2023-05-07T11:00:37.918Z,55.3
2023-05-07T11:12:24.439Z,55.1
2023-05-07T11:24:24.583Z,56.3
2023-05-07T11:36:24.427Z,55.5
2023-05-07T11:48:24.475Z,57.6
2023-05-07T12:00:24.531Z,57.3
2023-05-07T12:12:24.553Z,56.0
2023-05-07T12:24:24.738Z,54.8
2023-05-07T12:36:24.496Z,53.8
2023-05-07T12:48:24.570Z,52.3
2023-05-07T13:00:24.550Z,55.3
2023-05-07T13:12:24.440Z,56.5
2023-05-07T13:24:24.513Z,57.8
2023-05-07T13:36:24.448Z,64.2
2023-05-07T13:48:24.437Z,67.4
2023-05-07T14:00:24.543Z,73.7
2023-05-07T14:12:24.516Z,74.4
2023-05-07T14:24:37.591Z,83.0
2023-05-07T14:36:24.521Z,79.5
2023-05-07T14:48:24.455Z,77.1
2023-05-07T15:00:24.536Z,77.5
2023-05-07T15:12:24.516Z,78.3
2023-05-07T15:24:24.519Z,76.5
2023-05-07T15:36:24.542Z,70.5
2023-05-07T15:48:24.564Z,72.6
2023-05-07T16:00:24.430Z,74.4
2023-05-07T16:12:24.500Z,73.7
2023-05-07T16:24:24.516Z,72.2
2023-05-07T16:36:24.437Z,72.3
2023-05-07T16:48:24.434Z,75.3
2023-05-07T17:00:26.351Z,79.1
2023-05-07T17:12:24.444Z,82.4
2023-05-07T17:24:24.501Z,87.9
2023-05-07T17:36:24.461Z,91.2
2023-05-07T17:48:24.458Z,93.3
2023-05-07T18:00:24.457Z,95.5
2023-05-07T18:12:26.916Z,97.0
2023-05-07T18:24:24.521Z,98.1
2023-05-07T18:36:24.536Z,97.3
2023-05-07T18:48:24.559Z,97.9
2023-05-07T19:00:24.544Z,98.3
2023-05-07T19:12:24.524Z,98.3
2023-05-07T19:24:24.528Z,98.3
2023-05-07T19:36:24.523Z,98.3
2023-05-07T19:48:24.503Z,98.2
2023-05-07T20:00:24.507Z,98.2
2023-05-07T20:12:24.508Z,98.2
2023-05-07T20:24:24.432Z,98.2
2023-05-07T20:36:24.455Z,98.2
2023-05-07T20:48:24.457Z,98.2
2023-05-07T21:00:24.433Z,98.2
2023-05-07T21:12:24.539Z,96.2
2023-05-07T21:24:24.538Z,98.2
2023-05-07T21:36:24.485Z,98.2
2023-05-07T21:48:24.415Z,98.2
2023-05-07T22:00:24.550Z,98.2
2023-05-07T22:12:24.526Z,98.2
2023-05-07T22:24:24.722Z,98.2
2023-05-07T22:36:24.534Z,98.2
2023-05-07T22:48:24.547Z,98.2
2023-05-07T23:00:24.546Z,98.2
2023-05-07T23:12:24.654Z,98.2
2023-05-07T23:24:24.533Z,98.2
2023-05-07T23:36:24.557Z,98.2
2023-05-07T23:48:24.501Z,98.1
